sensor_id;sensor_type;location;lat;lon;timestamp;pressure;altitude;pressure_sealevel;temperature;humidity
63321;BME280;49449;48.800;9.534;2023-04-24T00:00:00;97547.13;;;12.52;42.71
63321;BME280;49449;48.800;9.534;2023-04-24T00:02:29;97545.25;;;12.58;42.59
63321;BME280;49449;48.800;9.534;2023-04-24T00:04:58;97556.94;;;12.57;42.68
63321;BME280;49449;48.800;9.534;2023-04-24T00:07:29;97555.59;;;12.60;42.62
63321;BME280;49449;48.800;9.534;2023-04-24T00:09:57;97558.25;;;12.60;42.76
63321;BME280;49449;48.800;9.534;2023-04-24T00:12:26;97556.66;;;12.54;42.93
63321;BME280;49449;48.800;9.534;2023-04-24T00:14:54;97560.38;;;12.52;43.31
63321;BME280;49449;48.800;9.534;2023-04-24T00:17:22;97560.63;;;12.56;43.28
63321;BME280;49449;48.800;9.534;2023-04-24T00:19:51;97560.38;;;12.58;43.10
63321;BME280;49449;48.800;9.534;2023-04-24T00:22:25;97563.81;;;12.58;43.21
63321;BME280;49449;48.800;9.534;2023-04-24T00:24:52;97568.31;;;12.58;43.02
63321;BME280;49449;48.800;9.534;2023-04-24T00:27:20;97572.81;;;12.52;43.16
63321;BME280;49449;48.800;9.534;2023-04-24T00:29:48;97566.44;;;12.48;43.50
63321;BME280;49449;48.800;9.534;2023-04-24T00:32:16;97568.00;;;12.33;43.28
63321;BME280;49449;48.800;9.534;2023-04-24T00:34:44;97568.00;;;12.28;43.36
63321;BME280;49449;48.800;9.534;2023-04-24T00:37:13;97571.75;;;12.32;43.43
63321;BME280;49449;48.800;9.534;2023-04-24T00:39:41;97573.84;;;12.36;43.43
63321;BME280;49449;48.800;9.534;2023-04-24T00:42:09;97583.13;;;12.33;43.30
63321;BME280;49449;48.800;9.534;2023-04-24T00:44:37;97568.00;;;12.33;43.66
63321;BME280;49449;48.800;9.534;2023-04-24T00:47:06;97560.59;;;12.25;43.57
63321;BME280;49449;48.800;9.534;2023-04-24T00:49:34;97556.09;;;12.31;43.25
63321;BME280;49449;48.800;9.534;2023-04-24T00:52:02;97555.84;;;12.38;43.24
63321;BME280;49449;48.800;9.534;2023-04-24T00:54:35;97561.16;;;12.38;43.08
63321;BME280;49449;48.800;9.534;2023-04-24T00:57:03;97556.91;;;12.42;43.18
63321;BME280;49449;48.800;9.534;2023-04-24T00:59:31;97550.28;;;12.44;43.33
63321;BME280;49449;48.800;9.534;2023-04-24T01:01:59;97545.78;;;12.45;43.30
63321;BME280;49449;48.800;9.534;2023-04-24T01:04:27;97554.78;;;12.44;43.03
63321;BME280;49449;48.800;9.534;2023-04-24T01:06:56;97547.09;;;12.42;43.06
63321;BME280;49449;48.800;9.534;2023-04-24T01:09:24;97540.50;;;12.45;42.68
63321;BME280;49449;48.800;9.534;2023-04-24T01:11:54;97547.34;;;12.41;42.79
63321;BME280;49449;48.800;9.534;2023-04-24T01:14:23;97541.28;;;12.35;42.79
63321;BME280;49449;48.800;9.534;2023-04-24T01:16:50;97541.00;;;12.26;42.84
63321;BME280;49449;48.800;9.534;2023-04-24T01:19:18;97535.97;;;12.35;42.64
63321;BME280;49449;48.800;9.534;2023-04-24T01:21:47;97532.81;;;12.43;42.63
63321;BME280;49449;48.800;9.534;2023-04-24T01:24:16;97537.28;;;12.43;42.61
63321;BME280;49449;48.800;9.534;2023-04-24T01:26:45;97535.72;;;12.42;42.61
63321;BME280;49449;48.800;9.534;2023-04-24T01:29:13;97529.09;;;12.44;42.62
63321;BME280;49449;48.800;9.534;2023-04-24T01:31:41;97529.09;;;12.44;42.53
63321;BME280;49449;48.800;9.534;2023-04-24T01:34:09;97512.66;;;12.47;42.44
63321;BME280;49449;48.800;9.534;2023-04-24T01:36:37;97516.38;;;12.46;42.12
63321;BME280;49449;48.800;9.534;2023-04-24T01:39:05;97517.97;;;12.47;42.14
63321;BME280;49449;48.800;9.534;2023-04-24T01:41:34;97521.41;;;12.48;42.33
63321;BME280;49449;48.800;9.534;2023-04-24T01:44:02;97519.56;;;12.48;42.52
63321;BME280;49449;48.800;9.534;2023-04-24T01:46:30;97519.28;;;12.50;42.52
63321;BME280;49449;48.800;9.534;2023-04-24T01:48:59;97517.19;;;12.52;42.38
63321;BME280;49449;48.800;9.534;2023-04-24T01:51:27;97514.81;;;12.50;42.38
63321;BME280;49449;48.800;9.534;2023-04-24T01:53:56;97518.22;;;12.51;42.44
63321;BME280;49449;48.800;9.534;2023-04-24T01:56:24;97515.31;;;12.52;41.87
63321;BME280;49449;48.800;9.534;2023-04-24T01:58:54;97513.72;;;12.46;41.87
63321;BME280;49449;48.800;9.534;2023-04-24T02:01:23;97519.03;;;12.46;41.90
63321;BME280;49449;48.800;9.534;2023-04-24T02:03:51;97515.59;;;12.46;42.16
63321;BME280;49449;48.800;9.534;2023-04-24T02:06:19;97511.38;;;12.45;42.33
63321;BME280;49449;48.800;9.534;2023-04-24T02:08:46;97510.03;;;12.42;42.07
63321;BME280;49449;48.800;9.534;2023-04-24T02:11:14;97507.91;;;12.44;42.25
63321;BME280;49449;48.800;9.534;2023-04-24T02:13:42;97509.50;;;12.45;41.94
63321;BME280;49449;48.800;9.534;2023-04-24T02:16:11;97503.66;;;12.33;40.66
63321;BME280;49449;48.800;9.534;2023-04-24T02:18:39;97497.28;;;12.34;41.25
63321;BME280;49449;48.800;9.534;2023-04-24T02:21:07;97510.81;;;12.38;41.54
63321;BME280;49449;48.800;9.534;2023-04-24T02:23:34;97505.78;;;12.31;40.81
63321;BME280;49449;48.800;9.534;2023-04-24T02:26:02;97499.69;;;12.30;40.47
63321;BME280;49449;48.800;9.534;2023-04-24T02:28:30;97513.47;;;12.27;40.26
63321;BME280;49449;48.800;9.534;2023-04-24T02:30:58;97509.75;;;12.13;39.39
63321;BME280;49449;48.800;9.534;2023-04-24T02:33:27;97504.16;;;12.09;39.58
63321;BME280;49449;48.800;9.534;2023-04-24T02:35:55;97518.16;;;11.94;39.63
63321;BME280;49449;48.800;9.534;2023-04-24T02:38:23;97507.75;;;11.77;39.83
63321;BME280;49449;48.800;9.534;2023-04-24T02:40:51;97506.78;;;11.89;39.90
63321;BME280;49449;48.800;9.534;2023-04-24T02:43:18;97507.72;;;11.62;40.29
63321;BME280;49449;48.800;9.534;2023-04-24T02:45:46;97511.41;;;11.61;40.59
63321;BME280;49449;48.800;9.534;2023-04-24T02:48:14;97503.44;;;11.56;40.64
63321;BME280;49449;48.800;9.534;2023-04-24T02:50:44;97500.47;;;11.42;40.62
63321;BME280;49449;48.800;9.534;2023-04-24T02:53:12;97500.19;;;11.33;41.07
63321;BME280;49449;48.800;9.534;2023-04-24T02:55:40;97501.84;;;11.45;40.89
63321;BME280;49449;48.800;9.534;2023-04-24T02:58:08;97507.16;;;11.55;40.72
63321;BME280;49449;48.800;9.534;2023-04-24T03:00:36;97511.06;;;11.42;40.85
63321;BME280;49449;48.800;9.534;2023-04-24T03:03:04;97508.75;;;11.56;40.67
63321;BME280;49449;48.800;9.534;2023-04-24T03:05:33;97507.50;;;11.69;40.41
63321;BME280;49449;48.800;9.534;2023-04-24T03:08:02;97507.50;;;11.79;40.19
63321;BME280;49449;48.800;9.534;2023-04-24T03:10:30;97512.03;;;11.84;40.21
63321;BME280;49449;48.800;9.534;2023-04-24T03:12:58;97504.91;;;11.84;40.20
63321;BME280;49449;48.800;9.534;2023-04-24T03:15:26;97519.50;;;11.92;40.13
63321;BME280;49449;48.800;9.534;2023-04-24T03:17:54;97518.94;;;11.95;40.31
63321;BME280;49449;48.800;9.534;2023-04-24T03:20:22;97511.28;;;11.99;40.49
63321;BME280;49449;48.800;9.534;2023-04-24T03:22:50;97515.81;;;12.03;40.37
63321;BME280;49449;48.800;9.534;2023-04-24T03:25:19;97508.06;;;11.86;41.03
63321;BME280;49449;48.800;9.534;2023-04-24T03:27:47;97515.19;;;11.81;41.11
63321;BME280;49449;48.800;9.534;2023-04-24T03:30:14;97517.00;;;11.70;41.69
63321;BME280;49449;48.800;9.534;2023-04-24T03:32:43;97510.34;;;11.57;42.00
63321;BME280;49449;48.800;9.534;2023-04-24T03:35:10;97506.38;;;11.60;42.55
63321;BME280;49449;48.800;9.534;2023-04-24T03:37:38;97509.53;;;11.51;42.60
63321;BME280;49449;48.800;9.534;2023-04-24T03:40:07;97498.47;;;11.65;42.43
63321;BME280;49449;48.800;9.534;2023-04-24T03:42:37;97510.66;;;11.71;42.52
63321;BME280;49449;48.800;9.534;2023-04-24T03:45:05;97514.38;;;11.75;42.49
63321;BME280;49449;48.800;9.534;2023-04-24T03:47:33;97516.44;;;11.63;42.70
63321;BME280;49449;48.800;9.534;2023-04-24T03:50:01;97509.03;;;11.60;42.49
63321;BME280;49449;48.800;9.534;2023-04-24T03:52:29;97509.31;;;11.68;42.24
63321;BME280;49449;48.800;9.534;2023-04-24T03:54:57;97509.84;;;11.60;42.22
63321;BME280;49449;48.800;9.534;2023-04-24T03:57:25;97508.47;;;11.52;42.36
63321;BME280;49449;48.800;9.534;2023-04-24T03:59:54;97516.63;;;11.41;42.45
63321;BME280;49449;48.800;9.534;2023-04-24T04:02:22;97513.09;;;11.25;42.94
63321;BME280;49449;48.800;9.534;2023-04-24T04:04:50;97511.50;;;11.18;42.87
63321;BME280;49449;48.800;9.534;2023-04-24T04:07:17;97520.75;;;11.21;42.72
63321;BME280;49449;48.800;9.534;2023-04-24T04:09:45;97522.25;;;11.07;43.05
63321;BME280;49449;48.800;9.534;2023-04-24T04:12:13;97512.81;;;11.21;42.93
63321;BME280;49449;48.800;9.534;2023-04-24T04:14:40;97513.53;;;11.06;43.15
63321;BME280;49449;48.800;9.534;2023-04-24T04:17:09;97511.16;;;11.10;43.01
63321;BME280;49449;48.800;9.534;2023-04-24T04:19:37;97514.50;;;10.90;43.43
63321;BME280;49449;48.800;9.534;2023-04-24T04:22:08;97516.31;;;10.89;43.49
63321;BME280;49449;48.800;9.534;2023-04-24T04:24:36;97517.16;;;10.62;44.03
63321;BME280;49449;48.800;9.534;2023-04-24T04:27:04;97521.78;;;10.77;43.86
63321;BME280;49449;48.800;9.534;2023-04-24T04:29:32;97530.28;;;10.52;44.21
63321;BME280;49449;48.800;9.534;2023-04-24T04:32:01;97530.56;;;10.23;44.99
63321;BME280;49449;48.800;9.534;2023-04-24T04:34:30;97526.53;;;10.16;45.18
63321;BME280;49449;48.800;9.534;2023-04-24T04:36:57;97527.97;;;10.29;45.06
63321;BME280;49449;48.800;9.534;2023-04-24T04:39:27;97536.03;;;10.44;44.77
63321;BME280;49449;48.800;9.534;2023-04-24T04:41:56;97540.34;;;10.55;44.64
63321;BME280;49449;48.800;9.534;2023-04-24T04:44:24;97553.13;;;10.36;44.79
63321;BME280;49449;48.800;9.534;2023-04-24T04:46:55;97557.72;;;10.46;44.74
63321;BME280;49449;48.800;9.534;2023-04-24T04:49:23;97574.28;;;10.41;45.02
63321;BME280;49449;48.800;9.534;2023-04-24T04:51:52;97584.81;;;10.63;45.27
63321;BME280;49449;48.800;9.534;2023-04-24T04:54:20;97608.13;;;10.72;45.20
63321;BME280;49449;48.800;9.534;2023-04-24T04:56:49;97616.72;;;10.89;45.36
63321;BME280;49449;48.800;9.534;2023-04-24T04:59:17;97607.78;;;10.36;45.66
63321;BME280;49449;48.800;9.534;2023-04-24T05:01:45;97615.78;;;10.46;45.61
63321;BME280;49449;48.800;9.534;2023-04-24T05:04:12;97605.78;;;10.48;44.42
63321;BME280;49449;48.800;9.534;2023-04-24T05:06:40;97612.06;;;10.42;44.81
63321;BME280;49449;48.800;9.534;2023-04-24T05:09:09;97621.47;;;10.33;44.67
63321;BME280;49449;48.800;9.534;2023-04-24T05:11:37;97621.63;;;10.21;44.82
63321;BME280;49449;48.800;9.534;2023-04-24T05:14:05;97644.00;;;10.40;44.65
63321;BME280;49449;48.800;9.534;2023-04-24T05:16:32;97642.16;;;10.41;44.97
63321;BME280;49449;48.800;9.534;2023-04-24T05:19:00;97640.66;;;10.50;44.50
63321;BME280;49449;48.800;9.534;2023-04-24T05:21:28;97637.28;;;10.55;44.43
63321;BME280;49449;48.800;9.534;2023-04-24T05:23:57;97644.19;;;10.61;44.24
63321;BME280;49449;48.800;9.534;2023-04-24T05:26:26;97656.50;;;10.50;44.52
63321;BME280;49449;48.800;9.534;2023-04-24T05:28:54;97654.88;;;10.44;44.91
63321;BME280;49449;48.800;9.534;2023-04-24T05:31:21;97644.53;;;10.42;45.20
63321;BME280;49449;48.800;9.534;2023-04-24T05:33:49;97641.16;;;10.47;45.13
63321;BME280;49449;48.800;9.534;2023-04-24T05:36:17;97652.06;;;10.56;45.27
63321;BME280;49449;48.800;9.534;2023-04-24T05:38:47;97660.50;;;10.53;45.04
63321;BME280;49449;48.800;9.534;2023-04-24T05:41:15;97667.97;;;10.61;44.84
63321;BME280;49449;48.800;9.534;2023-04-24T05:43:44;97665.91;;;10.63;45.28
63321;BME280;49449;48.800;9.534;2023-04-24T05:46:11;97676.00;;;10.71;44.45
63321;BME280;49449;48.800;9.534;2023-04-24T05:48:39;97683.00;;;10.83;44.30
63321;BME280;49449;48.800;9.534;2023-04-24T05:51:07;97683.69;;;10.73;43.63
63321;BME280;49449;48.800;9.534;2023-04-24T05:53:35;97687.88;;;10.69;44.04
63321;BME280;49449;48.800;9.534;2023-04-24T05:56:03;97696.44;;;10.81;43.68
63321;BME280;49449;48.800;9.534;2023-04-24T05:58:31;97698.44;;;10.69;43.53
63321;BME280;49449;48.800;9.534;2023-04-24T06:01:00;97707.50;;;10.78;43.38
63321;BME280;49449;48.800;9.534;2023-04-24T06:03:28;97713.03;;;10.76;43.18
63321;BME280;49449;48.800;9.534;2023-04-24T06:05:56;97716.75;;;10.53;43.35
63321;BME280;49449;48.800;9.534;2023-04-24T06:08:24;97718.50;;;10.70;43.23
63321;BME280;49449;48.800;9.534;2023-04-24T06:10:52;97717.78;;;10.74;43.02
63321;BME280;49449;48.800;9.534;2023-04-24T06:13:20;97727.09;;;10.82;42.79
63321;BME280;49449;48.800;9.534;2023-04-24T06:15:48;97723.25;;;10.90;42.99
63321;BME280;49449;48.800;9.534;2023-04-24T06:18:17;97725.59;;;10.86;42.83
63321;BME280;49449;48.800;9.534;2023-04-24T06:20:45;97727.91;;;10.83;43.24
63321;BME280;49449;48.800;9.534;2023-04-24T06:23:12;97718.38;;;10.81;43.12
63321;BME280;49449;48.800;9.534;2023-04-24T06:25:40;97721.91;;;10.87;43.15
63321;BME280;49449;48.800;9.534;2023-04-24T06:28:08;97730.06;;;10.86;42.92
63321;BME280;49449;48.800;9.534;2023-04-24T06:30:36;97721.31;;;10.85;42.83
63321;BME280;49449;48.800;9.534;2023-04-24T06:33:03;97728.25;;;10.86;42.56
63321;BME280;49449;48.800;9.534;2023-04-24T06:35:36;97727.34;;;10.80;42.49
63321;BME280;49449;48.800;9.534;2023-04-24T06:38:05;97729.13;;;10.75;42.80
63321;BME280;49449;48.800;9.534;2023-04-24T06:40:32;97722.81;;;10.76;42.50
63321;BME280;49449;48.800;9.534;2023-04-24T06:43:00;97723.66;;;10.81;41.91
63321;BME280;49449;48.800;9.534;2023-04-24T06:45:29;97719.41;;;10.80;42.01
63321;BME280;49449;48.800;9.534;2023-04-24T06:47:57;97708.00;;;10.75;41.96
63321;BME280;49449;48.800;9.534;2023-04-24T06:50:24;97717.34;;;10.83;42.43
63321;BME280;49449;48.800;9.534;2023-04-24T06:52:54;97707.91;;;11.19;41.93
63321;BME280;49449;48.800;9.534;2023-04-24T06:55:21;97715.00;;;11.46;41.43
63321;BME280;49449;48.800;9.534;2023-04-24T06:57:49;97710.41;;;11.68;41.05
63321;BME280;49449;48.800;9.534;2023-04-24T07:00:17;97718.09;;;11.70;40.38
63321;BME280;49449;48.800;9.534;2023-04-24T07:02:45;97709.78;;;11.88;40.74
63321;BME280;49449;48.800;9.534;2023-04-24T07:05:13;97712.03;;;12.17;40.69
63321;BME280;49449;48.800;9.534;2023-04-24T07:07:41;97705.00;;;12.48;40.36
63321;BME280;49449;48.800;9.534;2023-04-24T07:10:11;97709.91;;;12.82;38.96
63321;BME280;49449;48.800;9.534;2023-04-24T07:12:39;97719.69;;;12.87;39.22
63321;BME280;49449;48.800;9.534;2023-04-24T07:15:08;97717.63;;;13.20;38.47
63321;BME280;49449;48.800;9.534;2023-04-24T07:17:37;97721.34;;;13.44;38.23
63321;BME280;49449;48.800;9.534;2023-04-24T07:20:09;97726.59;;;12.83;37.93
63321;BME280;49449;48.800;9.534;2023-04-24T07:22:38;97719.75;;;13.18;38.11
63321;BME280;49449;48.800;9.534;2023-04-24T07:25:06;97720.53;;;13.29;37.62
63321;BME280;49449;48.800;9.534;2023-04-24T07:27:36;97710.47;;;13.46;37.90
63321;BME280;49449;48.800;9.534;2023-04-24T07:30:05;97706.22;;;13.24;37.09
63321;BME280;49449;48.800;9.534;2023-04-24T07:32:33;97706.75;;;13.37;36.86
63321;BME280;49449;48.800;9.534;2023-04-24T07:35:01;97709.16;;;13.38;36.74
63321;BME280;49449;48.800;9.534;2023-04-24T07:37:29;97700.91;;;13.55;36.58
63321;BME280;49449;48.800;9.534;2023-04-24T07:39:56;97712.06;;;13.62;37.85
63321;BME280;49449;48.800;9.534;2023-04-24T07:42:24;97713.38;;;13.08;36.09
63321;BME280;49449;48.800;9.534;2023-04-24T07:44:53;97711.75;;;12.92;35.92
63321;BME280;49449;48.800;9.534;2023-04-24T07:47:21;97719.41;;;12.78;36.97
63321;BME280;49449;48.800;9.534;2023-04-24T07:49:49;97723.59;;;12.69;37.53
63321;BME280;49449;48.800;9.534;2023-04-24T07:52:17;97723.41;;;12.86;37.70
63321;BME280;49449;48.800;9.534;2023-04-24T07:54:44;97741.09;;;12.70;37.62
63321;BME280;49449;48.800;9.534;2023-04-24T07:57:12;97735.09;;;12.27;37.83
63321;BME280;49449;48.800;9.534;2023-04-24T07:59:40;97745.69;;;12.27;37.24
63321;BME280;49449;48.800;9.534;2023-04-24T08:02:09;97746.16;;;12.13;38.14
63321;BME280;49449;48.800;9.534;2023-04-24T08:04:37;97743.84;;;12.22;37.96
63321;BME280;49449;48.800;9.534;2023-04-24T08:07:05;97747.50;;;12.16;37.10
63321;BME280;49449;48.800;9.534;2023-04-24T08:09:32;97753.38;;;12.28;37.13
63321;BME280;49449;48.800;9.534;2023-04-24T08:12:00;97746.63;;;12.58;35.97
63321;BME280;49449;48.800;9.534;2023-04-24T08:14:28;97745.84;;;12.63;35.26
63321;BME280;49449;48.800;9.534;2023-04-24T08:16:56;97748.88;;;12.24;35.73
63321;BME280;49449;48.800;9.534;2023-04-24T08:19:27;97755.50;;;12.26;35.43
63321;BME280;49449;48.800;9.534;2023-04-24T08:21:55;97759.16;;;12.73;35.77
63321;BME280;49449;48.800;9.534;2023-04-24T08:24:23;97758.19;;;13.00;34.32
63321;BME280;49449;48.800;9.534;2023-04-24T08:26:51;97765.81;;;12.81;35.02
63321;BME280;49449;48.800;9.534;2023-04-24T08:29:20;97769.03;;;12.98;34.31
63321;BME280;49449;48.800;9.534;2023-04-24T08:31:48;97775.09;;;12.88;33.86
63321;BME280;49449;48.800;9.534;2023-04-24T08:34:16;97773.06;;;12.48;31.59
63321;BME280;49449;48.800;9.534;2023-04-24T08:36:45;97779.75;;;12.56;31.99
63321;BME280;49449;48.800;9.534;2023-04-24T08:39:13;97780.84;;;12.70;32.57
63321;BME280;49449;48.800;9.534;2023-04-24T08:41:42;97781.66;;;12.70;31.93
63321;BME280;49449;48.800;9.534;2023-04-24T08:44:12;97794.41;;;12.74;31.98
63321;BME280;49449;48.800;9.534;2023-04-24T08:46:43;97788.66;;;12.39;32.53
63321;BME280;49449;48.800;9.534;2023-04-24T08:49:12;97804.56;;;12.39;32.94
63321;BME280;49449;48.800;9.534;2023-04-24T08:51:43;97801.44;;;12.52;34.87
63321;BME280;49449;48.800;9.534;2023-04-24T08:54:13;97805.72;;;12.59;33.53
63321;BME280;49449;48.800;9.534;2023-04-24T08:56:43;97801.09;;;12.92;32.99
63321;BME280;49449;48.800;9.534;2023-04-24T08:59:12;97802.75;;;13.18;32.46
63321;BME280;49449;48.800;9.534;2023-04-24T09:01:41;97791.66;;;13.37;33.15
63321;BME280;49449;48.800;9.534;2023-04-24T09:04:09;97793.94;;;12.97;32.21
63321;BME280;49449;48.800;9.534;2023-04-24T09:06:39;97796.41;;;13.24;32.46
63321;BME280;49449;48.800;9.534;2023-04-24T09:09:07;97795.88;;;13.27;32.19
63321;BME280;49449;48.800;9.534;2023-04-24T09:11:37;97803.84;;;13.43;32.14
63321;BME280;49449;48.800;9.534;2023-04-24T09:14:05;97799.06;;;13.40;31.46
63321;BME280;49449;48.800;9.534;2023-04-24T09:16:34;97800.66;;;13.41;31.41
63321;BME280;49449;48.800;9.534;2023-04-24T09:19:02;97810.44;;;13.20;31.73
63321;BME280;49449;48.800;9.534;2023-04-24T09:21:31;97804.88;;;13.16;31.60
63321;BME280;49449;48.800;9.534;2023-04-24T09:24:01;97809.63;;;13.09;31.23
63321;BME280;49449;48.800;9.534;2023-04-24T09:26:30;97814.13;;;12.98;31.83
63321;BME280;49449;48.800;9.534;2023-04-24T09:29:01;97814.09;;;12.93;32.60
63321;BME280;49449;48.800;9.534;2023-04-24T09:31:29;97815.38;;;12.80;31.13
63321;BME280;49449;48.800;9.534;2023-04-24T09:34:00;97819.84;;;12.75;31.79
63321;BME280;49449;48.800;9.534;2023-04-24T09:36:29;97833.13;;;12.80;34.35
63321;BME280;49449;48.800;9.534;2023-04-24T09:38:59;97826.22;;;12.74;32.33
63321;BME280;49449;48.800;9.534;2023-04-24T09:41:28;97831.53;;;12.74;33.50
63321;BME280;49449;48.800;9.534;2023-04-24T09:43:56;97831.25;;;12.75;33.18
63321;BME280;49449;48.800;9.534;2023-04-24T09:46:31;97831.41;;;12.58;31.94
63321;BME280;49449;48.800;9.534;2023-04-24T09:49:07;97851.34;;;12.66;34.37
63321;BME280;49449;48.800;9.534;2023-04-24T09:51:37;97860.34;;;12.65;34.36
63321;BME280;49449;48.800;9.534;2023-04-24T09:54:13;97866.13;;;12.57;34.82
63321;BME280;49449;48.800;9.534;2023-04-24T09:56:43;97863.41;;;12.41;33.12
63321;BME280;49449;48.800;9.534;2023-04-24T09:59:12;97870.84;;;12.49;36.22
63321;BME280;49449;48.800;9.534;2023-04-24T10:01:41;97875.09;;;12.50;35.00
63321;BME280;49449;48.800;9.534;2023-04-24T10:04:18;97870.44;;;12.68;34.29
63321;BME280;49449;48.800;9.534;2023-04-24T10:06:46;97861.63;;;12.62;35.78
63321;BME280;49449;48.800;9.534;2023-04-24T10:09:15;97855.25;;;13.11;35.50
63321;BME280;49449;48.800;9.534;2023-04-24T10:11:44;97859.53;;;13.33;33.24
63321;BME280;49449;48.800;9.534;2023-04-24T10:14:14;97861.50;;;13.63;35.56
63321;BME280;49449;48.800;9.534;2023-04-24T10:16:44;97850.59;;;13.64;33.04
63321;BME280;49449;48.800;9.534;2023-04-24T10:19:14;97860.44;;;13.64;34.80
63321;BME280;49449;48.800;9.534;2023-04-24T10:21:43;97856.94;;;13.53;33.00
63321;BME280;49449;48.800;9.534;2023-04-24T10:24:14;97860.69;;;13.68;32.64
63321;BME280;49449;48.800;9.534;2023-04-24T10:26:43;97860.44;;;13.69;32.72
63321;BME280;49449;48.800;9.534;2023-04-24T10:29:11;97863.31;;;13.42;32.83
63321;BME280;49449;48.800;9.534;2023-04-24T10:31:41;97875.72;;;13.26;32.45
63321;BME280;49449;48.800;9.534;2023-04-24T10:34:15;97880.69;;;13.07;33.26
63321;BME280;49449;48.800;9.534;2023-04-24T10:36:46;97878.63;;;13.19;32.88
63321;BME280;49449;48.800;9.534;2023-04-24T10:39:16;97880.78;;;13.33;34.16
63321;BME280;49449;48.800;9.534;2023-04-24T10:41:44;97879.94;;;13.17;30.80
63321;BME280;49449;48.800;9.534;2023-04-24T10:44:14;97884.09;;;12.97;32.88
63321;BME280;49449;48.800;9.534;2023-04-24T10:46:43;97881.28;;;13.19;32.09
63321;BME280;49449;48.800;9.534;2023-04-24T10:49:13;97881.81;;;13.21;28.70
63321;BME280;49449;48.800;9.534;2023-04-24T10:51:48;97877.09;;;13.39;33.91
63321;BME280;49449;48.800;9.534;2023-04-24T10:54:24;97876.09;;;13.71;29.35
63321;BME280;49449;48.800;9.534;2023-04-24T10:56:52;97882.41;;;13.59;29.46
63321;BME280;49449;48.800;9.534;2023-04-24T10:59:27;97882.44;;;13.64;28.52
63321;BME280;49449;48.800;9.534;2023-04-24T11:01:55;97879.50;;;13.61;29.26
63321;BME280;49449;48.800;9.534;2023-04-24T11:04:32;97886.72;;;13.66;27.21
63321;BME280;49449;48.800;9.534;2023-04-24T11:07:02;97888.78;;;13.53;29.05
63321;BME280;49449;48.800;9.534;2023-04-24T11:09:31;97885.78;;;13.14;30.30
63321;BME280;49449;48.800;9.534;2023-04-24T11:12:07;97899.31;;;13.22;31.59
63321;BME280;49449;48.800;9.534;2023-04-24T11:15:00;97904.06;;;13.15;30.39
63321;BME280;49449;48.800;9.534;2023-04-24T11:17:29;97908.78;;;13.08;27.68
63321;BME280;49449;48.800;9.534;2023-04-24T11:20:02;97903.75;;;13.01;31.23
63321;BME280;49449;48.800;9.534;2023-04-24T11:22:39;97905.88;;;13.10;30.14
63321;BME280;49449;48.800;9.534;2023-04-24T11:25:07;97907.19;;;13.02;29.19
63321;BME280;49449;48.800;9.534;2023-04-24T11:27:39;97917.97;;;12.85;31.62
63321;BME280;49449;48.800;9.534;2023-04-24T11:30:08;97919.66;;;13.06;31.52
63321;BME280;49449;48.800;9.534;2023-04-24T11:32:38;97927.84;;;12.95;31.77
63321;BME280;49449;48.800;9.534;2023-04-24T11:35:13;97930.41;;;12.79;35.00
63321;BME280;49449;48.800;9.534;2023-04-24T11:37:43;97934.97;;;12.89;31.00
63321;BME280;49449;48.800;9.534;2023-04-24T11:40:13;97929.25;;;12.65;29.49
63321;BME280;49449;48.800;9.534;2023-04-24T11:42:43;97930.16;;;12.81;30.05
63321;BME280;49449;48.800;9.534;2023-04-24T11:45:12;97928.81;;;12.83;30.25
63321;BME280;49449;48.800;9.534;2023-04-24T11:47:40;97936.72;;;12.73;32.26
63321;BME280;49449;48.800;9.534;2023-04-24T11:50:12;97943.38;;;12.76;31.47
63321;BME280;49449;48.800;9.534;2023-04-24T11:52:42;97940.19;;;12.74;31.35
63321;BME280;49449;48.800;9.534;2023-04-24T11:55:23;97949.69;;;12.69;34.64
63321;BME280;49449;48.800;9.534;2023-04-24T11:57:54;97953.66;;;12.72;30.93
63321;BME280;49449;48.800;9.534;2023-04-24T12:00:24;97943.97;;;12.88;30.86
63321;BME280;49449;48.800;9.534;2023-04-24T12:03:03;97943.50;;;12.96;31.13
63321;BME280;49449;48.800;9.534;2023-04-24T12:05:33;97941.03;;;12.84;30.24
63321;BME280;49449;48.800;9.534;2023-04-24T12:08:02;97946.50;;;13.10;32.60
63321;BME280;49449;48.800;9.534;2023-04-24T12:10:31;97951.53;;;13.17;32.50
63321;BME280;49449;48.800;9.534;2023-04-24T12:12:59;97936.19;;;13.24;32.86
63321;BME280;49449;48.800;9.534;2023-04-24T12:15:27;97947.06;;;13.22;30.95
63321;BME280;49449;48.800;9.534;2023-04-24T12:17:56;97944.66;;;13.16;28.97
63321;BME280;49449;48.800;9.534;2023-04-24T12:20:26;97957.50;;;12.92;29.45
63321;BME280;49449;48.800;9.534;2023-04-24T12:22:57;97956.28;;;13.10;30.23
63321;BME280;49449;48.800;9.534;2023-04-24T12:25:26;97961.22;;;12.91;28.52
63321;BME280;49449;48.800;9.534;2023-04-24T12:27:57;97967.25;;;12.81;29.16
63321;BME280;49449;48.800;9.534;2023-04-24T12:30:40;97966.19;;;12.44;30.74
63321;BME280;49449;48.800;9.534;2023-04-24T12:33:07;97980.09;;;12.62;31.48
63321;BME280;49449;48.800;9.534;2023-04-24T12:35:35;97975.03;;;12.93;31.26
63321;BME280;49449;48.800;9.534;2023-04-24T12:38:08;97966.66;;;13.16;30.81
63321;BME280;49449;48.800;9.534;2023-04-24T12:40:36;97952.44;;;13.43;30.52
63321;BME280;49449;48.800;9.534;2023-04-24T12:43:13;97954.28;;;13.37;30.16
63321;BME280;49449;48.800;9.534;2023-04-24T12:45:42;97947.75;;;13.66;31.06
63321;BME280;49449;48.800;9.534;2023-04-24T12:48:10;97945.03;;;13.55;28.48
63321;BME280;49449;48.800;9.534;2023-04-24T12:50:40;97956.16;;;13.52;30.15
63321;BME280;49449;48.800;9.534;2023-04-24T12:53:11;97953.13;;;13.13;28.26
63321;BME280;49449;48.800;9.534;2023-04-24T12:55:38;97952.88;;;12.72;29.00
63321;BME280;49449;48.800;9.534;2023-04-24T12:58:06;97944.56;;;12.58;30.03
63321;BME280;49449;48.800;9.534;2023-04-24T13:00:34;97952.75;;;12.56;29.83
63321;BME280;49449;48.800;9.534;2023-04-24T13:03:03;97957.59;;;12.64;29.83
63321;BME280;49449;48.800;9.534;2023-04-24T13:05:30;97962.25;;;12.84;29.59
63321;BME280;49449;48.800;9.534;2023-04-24T13:07:58;97959.56;;;12.79;29.27